sensor_id;sensor_type;location;lat;lon;timestamp;pressure;altitude;pressure_sealevel;temperature;humidity
60373;BME280;46216;52.220;5.134;2023-08-31T00:02:11;100963.59;;;13.95;100.00
60373;BME280;46216;52.220;5.134;2023-08-31T00:04:36;100956.78;;;13.91;100.00
60373;BME280;46216;52.220;5.134;2023-08-31T00:07:02;100953.38;;;13.89;100.00
60373;BME280;46216;52.220;5.134;2023-08-31T00:09:27;100961.44;;;13.89;100.00
60373;BME280;46216;52.220;5.134;2023-08-31T00:11:54;100950.00;;;13.87;100.00
60373;BME280;46216;52.220;5.134;2023-08-31T00:14:22;100955.38;;;13.87;100.00
60373;BME280;46216;52.220;5.134;2023-08-31T00:16:50;100948.56;;;13.83;100.00
60373;BME280;46216;52.220;5.134;2023-08-31T00:19:16;100957.72;;;13.80;100.00
60373;BME280;46216;52.220;5.134;2023-08-31T00:21:42;100945.41;;;13.78;100.00
60373;BME280;46216;52.220;5.134;2023-08-31T00:24:08;100947.84;;;13.81;100.00
60373;BME280;46216;52.220;5.134;2023-08-31T00:26:35;100938.38;;;13.77;100.00
60373;BME280;46216;52.220;5.134;2023-08-31T00:29:06;100945.16;;;13.81;100.00
60373;BME280;46216;52.220;5.134;2023-08-31T00:31:32;100954.53;;;13.86;100.00
60373;BME280;46216;52.220;5.134;2023-08-31T00:33:57;100950.00;;;13.87;100.00
60373;BME280;46216;52.220;5.134;2023-08-31T00:36:23;100948.31;;;13.86;100.00
60373;BME280;46216;52.220;5.134;2023-08-31T00:38:48;100947.19;;;13.88;100.00
60373;BME280;46216;52.220;5.134;2023-08-31T00:41:14;100937.31;;;13.89;100.00
60373;BME280;46216;52.220;5.134;2023-08-31T00:43:40;100950.44;;;13.92;100.00
60373;BME280;46216;52.220;5.134;2023-08-31T00:46:05;100946.66;;;13.94;100.00
60373;BME280;46216;52.220;5.134;2023-08-31T00:48:32;100950.34;;;13.93;100.00
60373;BME280;46216;52.220;5.134;2023-08-31T00:50:57;100966.84;;;13.99;100.00
60373;BME280;46216;52.220;5.134;2023-08-31T00:53:23;100947.50;;;13.95;100.00
60373;BME280;46216;52.220;5.134;2023-08-31T00:55:49;100942.63;;;14.00;100.00
60373;BME280;46216;52.220;5.134;2023-08-31T00:58:14;100951.38;;;14.02;100.00
60373;BME280;46216;52.220;5.134;2023-08-31T01:03:13;100942.81;;;14.08;100.00
60373;BME280;46216;52.220;5.134;2023-08-31T01:05:50;100933.66;;;14.11;100.00
60373;BME280;46216;52.220;5.134;2023-08-31T01:11:10;100937.19;;;14.11;100.00
60373;BME280;46216;52.220;5.134;2023-08-31T01:13:41;100935.81;;;14.17;100.00
60373;BME280;46216;52.220;5.134;2023-08-31T01:16:13;100931.31;;;14.17;100.00
60373;BME280;46216;52.220;5.134;2023-08-31T01:18:43;100931.03;;;14.20;100.00
60373;BME280;46216;52.220;5.134;2023-08-31T01:23:53;100956.00;;;14.21;100.00
60373;BME280;46216;52.220;5.134;2023-08-31T01:26:23;100960.53;;;14.20;100.00
60373;BME280;46216;52.220;5.134;2023-08-31T01:28:49;100957.84;;;14.20;100.00
60373;BME280;46216;52.220;5.134;2023-08-31T01:31:15;100968.03;;;14.27;100.00
60373;BME280;46216;52.220;5.134;2023-08-31T01:33:41;100954.50;;;14.28;100.00
60373;BME280;46216;52.220;5.134;2023-08-31T01:36:14;100960.44;;;14.32;100.00
60373;BME280;46216;52.220;5.134;2023-08-31T01:38:45;100958.09;;;14.17;100.00
60373;BME280;46216;52.220;5.134;2023-08-31T01:41:16;100963.66;;;14.26;100.00
60373;BME280;46216;52.220;5.134;2023-08-31T01:43:44;100957.19;;;14.28;100.00
60373;BME280;46216;52.220;5.134;2023-08-31T01:46:10;100948.28;;;14.28;100.00
60373;BME280;46216;52.220;5.134;2023-08-31T01:48:41;100946.13;;;14.22;100.00
60373;BME280;46216;52.220;5.134;2023-08-31T01:51:10;100945.16;;;14.23;100.00
60373;BME280;46216;52.220;5.134;2023-08-31T01:53:35;100947.72;;;14.24;100.00
60373;BME280;46216;52.220;5.134;2023-08-31T01:56:02;100948.97;;;14.20;100.00
60373;BME280;46216;52.220;5.134;2023-08-31T01:58:27;100950.06;;;14.17;100.00
60373;BME280;46216;52.220;5.134;2023-08-31T02:00:53;100945.69;;;14.16;100.00
60373;BME280;46216;52.220;5.134;2023-08-31T02:03:18;100954.84;;;14.14;100.00
60373;BME280;46216;52.220;5.134;2023-08-31T02:05:44;100952.84;;;14.16;100.00
60373;BME280;46216;52.220;5.134;2023-08-31T02:08:09;100944.69;;;14.17;100.00
60373;BME280;46216;52.220;5.134;2023-08-31T02:10:34;100958.38;;;14.14;100.00
60373;BME280;46216;52.220;5.134;2023-08-31T02:13:00;100960.56;;;14.09;100.00
60373;BME280;46216;52.220;5.134;2023-08-31T02:15:25;100982.00;;;14.09;100.00
60373;BME280;46216;52.220;5.134;2023-08-31T02:17:51;100972.44;;;14.07;100.00
60373;BME280;46216;52.220;5.134;2023-08-31T02:20:16;100979.34;;;14.09;100.00
60373;BME280;46216;52.220;5.134;2023-08-31T02:22:42;100965.34;;;14.06;100.00
60373;BME280;46216;52.220;5.134;2023-08-31T02:25:07;100967.78;;;14.09;100.00
60373;BME280;46216;52.220;5.134;2023-08-31T02:27:33;100966.22;;;14.06;100.00
60373;BME280;46216;52.220;5.134;2023-08-31T02:29:58;100960.97;;;14.05;100.00
60373;BME280;46216;52.220;5.134;2023-08-31T02:32:24;100954.78;;;14.04;100.00
60373;BME280;46216;52.220;5.134;2023-08-31T02:34:49;100955.03;;;14.01;100.00
60373;BME280;46216;52.220;5.134;2023-08-31T02:37:15;100956.88;;;14.01;100.00
60373;BME280;46216;52.220;5.134;2023-08-31T02:39:40;100958.81;;;13.99;100.00
60373;BME280;46216;52.220;5.134;2023-08-31T02:42:06;100952.63;;;13.98;100.00
60373;BME280;46216;52.220;5.134;2023-08-31T02:44:33;100954.31;;;13.99;100.00
60373;BME280;46216;52.220;5.134;2023-08-31T02:46:58;100963.59;;;13.95;100.00
60373;BME280;46216;52.220;5.134;2023-08-31T02:49:24;100953.72;;;13.95;100.00
60373;BME280;46216;52.220;5.134;2023-08-31T02:51:49;100955.44;;;13.96;100.00
60373;BME280;46216;52.220;5.134;2023-08-31T02:54:15;100962.34;;;13.99;100.00
60373;BME280;46216;52.220;5.134;2023-08-31T02:56:41;100948.34;;;13.95;100.00
60373;BME280;46216;52.220;5.134;2023-08-31T02:59:07;100952.88;;;13.95;100.00
60373;BME280;46216;52.220;5.134;2023-08-31T03:01:32;100950.44;;;13.92;100.00
60373;BME280;46216;52.220;5.134;2023-08-31T03:03:58;100952.28;;;13.91;100.00
60373;BME280;46216;52.220;5.134;2023-08-31T03:06:23;100967.53;;;13.91;100.00
60373;BME280;46216;52.220;5.134;2023-08-31T03:08:52;100967.53;;;13.91;100.00
60373;BME280;46216;52.220;5.134;2023-08-31T03:11:17;100953.38;;;13.89;100.00
60373;BME280;46216;52.220;5.134;2023-08-31T03:13:43;100948.03;;;13.89;100.00
60373;BME280;46216;52.220;5.134;2023-08-31T03:16:08;100951.69;;;13.88;100.00
60373;BME280;46216;52.220;5.134;2023-08-31T03:18:33;100965.25;;;13.86;100.00
60373;BME280;46216;52.220;5.134;2023-08-31T03:20:59;100968.03;;;13.85;100.00
60373;BME280;46216;52.220;5.134;2023-08-31T03:23:25;100969.75;;;13.86;100.00
60373;BME280;46216;52.220;5.134;2023-08-31T03:25:50;100976.78;;;13.87;100.00
60373;BME280;46216;52.220;5.134;2023-08-31T03:28:17;100973.38;;;13.85;100.00
60373;BME280;46216;52.220;5.134;2023-08-31T03:30:42;100973.13;;;13.88;100.00
60373;BME280;46216;52.220;5.134;2023-08-31T03:33:10;100983.84;;;13.88;100.00
60373;BME280;46216;52.220;5.134;2023-08-31T03:35:36;100972.53;;;13.84;100.00
60373;BME280;46216;52.220;5.134;2023-08-31T03:38:01;100964.50;;;13.84;100.00
60373;BME280;46216;52.220;5.134;2023-08-31T03:40:26;100975.97;;;13.86;100.00
60373;BME280;46216;52.220;5.134;2023-08-31T03:42:52;100981.16;;;13.88;100.00
60373;BME280;46216;52.220;5.134;2023-08-31T03:45:19;100980.72;;;13.83;100.00
60373;BME280;46216;52.220;5.134;2023-08-31T03:47:44;100977.78;;;13.86;100.00
60373;BME280;46216;52.220;5.134;2023-08-31T03:50:10;100980.47;;;13.86;100.00
60373;BME280;46216;52.220;5.134;2023-08-31T03:52:35;100983.00;;;13.87;100.00
60373;BME280;46216;52.220;5.134;2023-08-31T03:55:01;100983.72;;;13.89;100.00
60373;BME280;46216;52.220;5.134;2023-08-31T03:57:26;100986.28;;;13.91;100.00
60373;BME280;46216;52.220;5.134;2023-08-31T03:59:52;100981.91;;;13.90;100.00
60373;BME280;46216;52.220;5.134;2023-08-31T04:02:17;100978.75;;;13.85;100.00
60373;BME280;46216;52.220;5.134;2023-08-31T04:04:42;100978.50;;;13.88;100.00
60373;BME280;46216;52.220;5.134;2023-08-31T04:07:08;100979.91;;;13.92;100.00
60373;BME280;46216;52.220;5.134;2023-08-31T04:09:34;100977.25;;;13.92;100.00
60373;BME280;46216;52.220;5.134;2023-08-31T04:11:59;100982.59;;;13.92;100.00
60373;BME280;46216;52.220;5.134;2023-08-31T04:14:28;100975.69;;;13.89;100.00
60373;BME280;46216;52.220;5.134;2023-08-31T04:16:54;100979.66;;;13.95;100.00
60373;BME280;46216;52.220;5.134;2023-08-31T04:19:20;100988.69;;;13.94;100.00
60373;BME280;46216;52.220;5.134;2023-08-31T04:21:46;100986.00;;;13.94;100.00
60373;BME280;46216;52.220;5.134;2023-08-31T04:24:11;100994.63;;;13.98;100.00
60373;BME280;46216;52.220;5.134;2023-08-31T04:26:37;100986.47;;;13.99;100.00
60373;BME280;46216;52.220;5.134;2023-08-31T04:29:03;100988.69;;;13.94;100.00
60373;BME280;46216;52.220;5.134;2023-08-31T04:31:31;100994.78;;;13.96;100.00
60373;BME280;46216;52.220;5.134;2023-08-31T04:33:56;100995.50;;;13.98;100.00
60373;BME280;46216;52.220;5.134;2023-08-31T04:36:22;100999.84;;;13.99;100.00
60373;BME280;46216;52.220;5.134;2023-08-31T04:38:48;101011.81;;;13.95;100.00
60373;BME280;46216;52.220;5.134;2023-08-31T04:41:14;101012.91;;;13.92;100.00
60373;BME280;46216;52.220;5.134;2023-08-31T04:43:40;101008.81;;;13.88;100.00
60373;BME280;46216;52.220;5.134;2023-08-31T04:46:05;101018.69;;;13.88;100.00
60373;BME280;46216;52.220;5.134;2023-08-31T04:48:31;101022.78;;;13.92;100.00
60373;BME280;46216;52.220;5.134;2023-08-31T04:50:56;101000.91;;;13.87;100.00
60373;BME280;46216;52.220;5.134;2023-08-31T04:53:25;101023.03;;;13.89;100.00
60373;BME280;46216;52.220;5.134;2023-08-31T04:55:51;101023.34;;;13.86;100.00
60373;BME280;46216;52.220;5.134;2023-08-31T04:58:16;101027.19;;;13.93;100.00
60373;BME280;46216;52.220;5.134;2023-08-31T05:00:42;101036.91;;;13.94;100.00
60373;BME280;46216;52.220;5.134;2023-08-31T05:03:09;101026.31;;;13.92;100.00
60373;BME280;46216;52.220;5.134;2023-08-31T05:05:35;101034.09;;;13.95;100.00
60373;BME280;46216;52.220;5.134;2023-08-31T05:08:00;101031.41;;;13.95;100.00
60373;BME280;46216;52.220;5.134;2023-08-31T05:10:26;101041.78;;;14.00;100.00
60373;BME280;46216;52.220;5.134;2023-08-31T05:12:51;101038.34;;;13.98;100.00
60373;BME280;46216;52.220;5.134;2023-08-31T05:15:17;101060.28;;;14.03;100.00
60373;BME280;46216;52.220;5.134;2023-08-31T05:17:42;101055.88;;;14.02;100.00
60373;BME280;46216;52.220;5.134;2023-08-31T05:20:08;101055.75;;;14.04;100.00
60373;BME280;46216;52.220;5.134;2023-08-31T05:22:35;101055.63;;;14.05;100.00
60373;BME280;46216;52.220;5.134;2023-08-31T05:25:00;101066.34;;;14.05;100.00
60373;BME280;46216;52.220;5.134;2023-08-31T05:27:28;101067.31;;;14.04;100.00
60373;BME280;46216;52.220;5.134;2023-08-31T05:29:53;101077.06;;;14.05;100.00
60373;BME280;46216;52.220;5.134;2023-08-31T05:32:18;101059.53;;;14.01;100.00
60373;BME280;46216;52.220;5.134;2023-08-31T05:34:44;101062.97;;;14.03;100.00
60373;BME280;46216;52.220;5.134;2023-08-31T05:37:09;101068.31;;;14.03;100.00
60373;BME280;46216;52.220;5.134;2023-08-31T05:39:34;101075.13;;;14.07;100.00
60373;BME280;46216;52.220;5.134;2023-08-31T05:42:00;101076.81;;;14.08;100.00
60373;BME280;46216;52.220;5.134;2023-08-31T05:44:26;101080.22;;;14.10;100.00
60373;BME280;46216;52.220;5.134;2023-08-31T05:46:51;101084.72;;;14.10;100.00
60373;BME280;46216;52.220;5.134;2023-08-31T05:49:17;101090.94;;;14.10;100.00
60373;BME280;46216;52.220;5.134;2023-08-31T05:51:42;101090.78;;;14.12;100.00
60373;BME280;46216;52.220;5.134;2023-08-31T05:54:07;101100.53;;;14.13;100.00
60373;BME280;46216;52.220;5.134;2023-08-31T05:56:38;101096.91;;;14.14;100.00
60373;BME280;46216;52.220;5.134;2023-08-31T05:59:05;101097.16;;;14.11;100.00
60373;BME280;46216;52.220;5.134;2023-08-31T06:01:31;101099.94;;;14.09;100.00
60373;BME280;46216;52.220;5.134;2023-08-31T06:03:57;101085.00;;;14.07;100.00
60373;BME280;46216;52.220;5.134;2023-08-31T06:06:22;101080.97;;;14.01;100.00
60373;BME280;46216;52.220;5.134;2023-08-31T06:08:47;101085.00;;;14.07;100.00
60373;BME280;46216;52.220;5.134;2023-08-31T06:11:13;101090.72;;;14.02;100.00
60373;BME280;46216;52.220;5.134;2023-08-31T06:13:38;101088.75;;;14.04;100.00
60373;BME280;46216;52.220;5.134;2023-08-31T06:16:04;101091.56;;;14.03;100.00
60373;BME280;46216;52.220;5.134;2023-08-31T06:18:29;101093.78;;;13.98;100.00
60373;BME280;46216;52.220;5.134;2023-08-31T06:20:55;101093.63;;;13.99;100.00
60373;BME280;46216;52.220;5.134;2023-08-31T06:23:21;101091.09;;;13.98;100.00
60373;BME280;46216;52.220;5.134;2023-08-31T06:25:46;101092.19;;;13.95;100.00
60373;BME280;46216;52.220;5.134;2023-08-31T06:28:11;101098.16;;;13.99;100.00
60373;BME280;46216;52.220;5.134;2023-08-31T06:30:37;101095.38;;;14.00;100.00
60373;BME280;46216;52.220;5.134;2023-08-31T06:33:03;101100.22;;;14.06;100.00
60373;BME280;46216;52.220;5.134;2023-08-31T06:35:29;101100.94;;;14.08;100.00
60373;BME280;46216;52.220;5.134;2023-08-31T06:37:54;101096.75;;;14.15;100.00
60373;BME280;46216;52.220;5.134;2023-08-31T06:40:21;101104.28;;;14.22;100.00
60373;BME280;46216;52.220;5.134;2023-08-31T06:42:47;101098.66;;;14.25;100.00
60373;BME280;46216;52.220;5.134;2023-08-31T06:45:12;101103.25;;;14.34;100.00
60373;BME280;46216;52.220;5.134;2023-08-31T06:47:37;101109.91;;;14.39;100.00
60373;BME280;46216;52.220;5.134;2023-08-31T06:50:03;101108.09;;;14.40;100.00
60373;BME280;46216;52.220;5.134;2023-08-31T06:52:29;101111.00;;;14.48;100.00
60373;BME280;46216;52.220;5.134;2023-08-31T06:54:54;101117.81;;;14.52;100.00
60373;BME280;46216;52.220;5.134;2023-08-31T06:57:24;101116.56;;;14.56;100.00
60373;BME280;46216;52.220;5.134;2023-08-31T06:59:50;101122.16;;;14.64;100.00
60373;BME280;46216;52.220;5.134;2023-08-31T07:02:15;101116.22;;;14.71;100.00
60373;BME280;46216;52.220;5.134;2023-08-31T07:04:41;101124.03;;;14.74;100.00
60373;BME280;46216;52.220;5.134;2023-08-31T07:07:07;101129.00;;;14.78;100.00
60373;BME280;46216;52.220;5.134;2023-08-31T07:09:34;101129.84;;;14.79;100.00
60373;BME280;46216;52.220;5.134;2023-08-31T07:11:59;101130.84;;;14.78;100.00
60373;BME280;46216;52.220;5.134;2023-08-31T07:14:26;101139.47;;;14.81;100.00
60373;BME280;46216;52.220;5.134;2023-08-31T07:16:51;101132.13;;;14.83;100.00
60373;BME280;46216;52.220;5.134;2023-08-31T07:19:17;101143.44;;;14.87;100.00
60373;BME280;46216;52.220;5.134;2023-08-31T07:21:42;101138.66;;;14.90;100.00
60373;BME280;46216;52.220;5.134;2023-08-31T07:24:07;101145.34;;;14.96;100.00
60373;BME280;46216;52.220;5.134;2023-08-31T07:26:33;101157.16;;;15.05;100.00
60373;BME280;46216;52.220;5.134;2023-08-31T07:29:00;101157.00;;;15.06;100.00
60373;BME280;46216;52.220;5.134;2023-08-31T07:31:27;101143.56;;;15.06;100.00
60373;BME280;46216;52.220;5.134;2023-08-31T07:33:52;101156.00;;;15.07;100.00
60373;BME280;46216;52.220;5.134;2023-08-31T07:36:17;101159.41;;;15.09;100.00
60373;BME280;46216;52.220;5.134;2023-08-31T07:38:43;101166.22;;;15.13;100.00
60373;BME280;46216;52.220;5.134;2023-08-31T07:41:08;101161.56;;;15.16;100.00
60373;BME280;46216;52.220;5.134;2023-08-31T07:43:34;101166.53;;;15.20;100.00
60373;BME280;46216;52.220;5.134;2023-08-31T07:45:59;101159.91;;;15.24;100.00
60373;BME280;46216;52.220;5.134;2023-08-31T07:48:24;101164.00;;;15.28;100.00
60373;BME280;46216;52.220;5.134;2023-08-31T07:50:50;101161.06;;;15.31;100.00
60373;BME280;46216;52.220;5.134;2023-08-31T07:53:15;101174.13;;;15.36;100.00
60373;BME280;46216;52.220;5.134;2023-08-31T07:55:50;101166.06;;;15.36;100.00
60373;BME280;46216;52.220;5.134;2023-08-31T07:58:16;101182.78;;;15.49;100.00
60373;BME280;46216;52.220;5.134;2023-08-31T08:00:45;101176.84;;;15.55;100.00
60373;BME280;46216;52.220;5.134;2023-08-31T08:03:11;101181.00;;;15.59;100.00
60373;BME280;46216;52.220;5.134;2023-08-31T08:05:36;101176.06;;;15.65;100.00
60373;BME280;46216;52.220;5.134;2023-08-31T08:08:02;101188.72;;;15.74;100.00
60373;BME280;46216;52.220;5.134;2023-08-31T08:10:28;101187.16;;;15.81;100.00
60373;BME280;46216;52.220;5.134;2023-08-31T08:13:13;101172.63;;;15.83;100.00
60373;BME280;46216;52.220;5.134;2023-08-31T08:15:44;101184.81;;;15.97;100.00
60373;BME280;46216;52.220;5.134;2023-08-31T08:18:21;101184.81;;;15.97;100.00
60373;BME280;46216;52.220;5.134;2023-08-31T08:20:48;101178.16;;;15.92;100.00
60373;BME280;46216;52.220;5.134;2023-08-31T08:23:14;101189.47;;;15.95;100.00
60373;BME280;46216;52.220;5.134;2023-08-31T08:25:40;101186.38;;;16.00;100.00
60373;BME280;46216;52.220;5.134;2023-08-31T08:28:05;101182.16;;;16.07;100.00
60373;BME280;46216;52.220;5.134;2023-08-31T08:30:30;101181.56;;;16.13;100.00
60373;BME280;46216;52.220;5.134;2023-08-31T08:32:56;101190.81;;;16.20;100.00
60373;BME280;46216;52.220;5.134;2023-08-31T08:35:22;101190.50;;;16.23;100.00
60373;BME280;46216;52.220;5.134;2023-08-31T08:37:48;101195.47;;;16.28;100.00
60373;BME280;46216;52.220;5.134;2023-08-31T08:40:13;101200.84;;;16.28;100.00
60373;BME280;46216;52.220;5.134;2023-08-31T08:42:41;101208.78;;;16.29;100.00
60373;BME280;46216;52.220;5.134;2023-08-31T08:45:16;101218.28;;;16.24;100.00
60373;BME280;46216;52.220;5.134;2023-08-31T08:47:44;101220.38;;;16.11;100.00
60373;BME280;46216;52.220;5.134;2023-08-31T08:50:11;101210.69;;;15.98;100.00
60373;BME280;46216;52.220;5.134;2023-08-31T08:52:38;101207.41;;;15.85;100.00
60373;BME280;46216;52.220;5.134;2023-08-31T08:55:04;101204.28;;;15.80;100.00
60373;BME280;46216;52.220;5.134;2023-08-31T08:57:31;101206.41;;;15.76;100.00
60373;BME280;46216;52.220;5.134;2023-08-31T08:59:57;101207.53;;;15.74;100.00
60373;BME280;46216;52.220;5.134;2023-08-31T09:02:23;101203.25;;;15.71;100.00
60373;BME280;46216;52.220;5.134;2023-08-31T09:04:48;101196.56;;;15.66;100.00
60373;BME280;46216;52.220;5.134;2023-08-31T09:07:14;101202.22;;;15.63;100.00
60373;BME280;46216;52.220;5.134;2023-08-31T09:09:50;101207.13;;;15.57;100.00
60373;BME280;46216;52.220;5.134;2023-08-31T09:12:16;101207.72;;;15.61;100.00
60373;BME280;46216;52.220;5.134;2023-08-31T09:15:02;101201.84;;;15.67;100.00
60373;BME280;46216;52.220;5.134;2023-08-31T09:17:42;101207.53;;;15.74;100.00
60373;BME280;46216;52.220;5.134;2023-08-31T09:20:12;101210.38;;;15.82;100.00
60373;BME280;46216;52.220;5.134;2023-08-31T09:22:42;101205.88;;;15.92;100.00
60373;BME280;46216;52.220;5.134;2023-08-31T09:25:12;101207.00;;;15.99;100.00
60373;BME280;46216;52.220;5.134;2023-08-31T09:27:38;101211.31;;;16.12;100.00
60373;BME280;46216;52.220;5.134;2023-08-31T09:30:06;101211.03;;;16.24;100.00
60373;BME280;46216;52.220;5.134;2023-08-31T09:32:32;101195.78;;;16.35;100.00
60373;BME280;46216;52.220;5.134;2023-08-31T09:34:57;101199.44;;;16.53;100.00
60373;BME280;46216;52.220;5.134;2023-08-31T09:37:27;101211.34;;;16.70;100.00
60373;BME280;46216;52.220;5.134;2023-08-31T09:39:53;101208.69;;;16.79;100.00
60373;BME280;46216;52.220;5.134;2023-08-31T09:42:18;101209.25;;;16.83;100.00
60373;BME280;46216;52.220;5.134;2023-08-31T09:44:45;101204.03;;;16.82;100.00
60373;BME280;46216;52.220;5.134;2023-08-31T09:47:14;101196.06;;;16.80;100.00
60373;BME280;46216;52.220;5.134;2023-08-31T09:49:42;101196.34;;;16.77;100.00
60373;BME280;46216;52.220;5.134;2023-08-31T09:52:08;101194.91;;;16.73;100.00
60373;BME280;46216;52.220;5.134;2023-08-31T09:54:35;101183.91;;;16.76;100.00
60373;BME280;46216;52.220;5.134;2023-08-31T09:57:01;101186.16;;;16.81;100.00
60373;BME280;46216;52.220;5.134;2023-08-31T09:59:28;101196.63;;;16.93;100.00
60373;BME280;46216;52.220;5.134;2023-08-31T10:01:54;101194.66;;;16.95;100.00
60373;BME280;46216;52.220;5.134;2023-08-31T10:04:21;101200.16;;;17.03;100.00
60373;BME280;46216;52.220;5.134;2023-08-31T10:06:48;101200.56;;;17.09;100.00
60373;BME280;46216;52.220;5.134;2023-08-31T10:09:14;101194.28;;;17.27;100.00
60373;BME280;46216;52.220;5.134;2023-08-31T10:11:43;101195.66;;;17.41;100.00
60373;BME280;46216;52.220;5.134;2023-08-31T10:14:13;101186.94;;;17.57;100.00
60373;BME280;46216;52.220;5.134;2023-08-31T10:16:39;101184.34;;;17.65;100.00
60373;BME280;46216;52.220;5.134;2023-08-31T10:19:06;101187.28;;;17.72;100.00
60373;BME280;46216;52.220;5.134;2023-08-31T10:21:32;101180.75;;;17.84;100.00
60373;BME280;46216;52.220;5.134;2023-08-31T10:24:01;101189.63;;;17.94;100.00
60373;BME280;46216;52.220;5.134;2023-08-31T10:26:27;101169.06;;;17.93;100.00
60373;BME280;46216;52.220;5.134;2023-08-31T10:28:53;101163.88;;;18.00;100.00
60373;BME280;46216;52.220;5.134;2023-08-31T10:31:19;101156.19;;;18.05;100.00
60373;BME280;46216;52.220;5.134;2023-08-31T10:36:55;101153.19;;;18.26;100.00
60373;BME280;46216;52.220;5.134;2023-08-31T10:39:19;101153.97;;;18.36;100.00
60373;BME280;46216;52.220;5.134;2023-08-31T10:41:55;101158.56;;;18.44;100.00
60373;BME280;46216;52.220;5.134;2023-08-31T10:44:23;101156.09;;;18.51;100.00
60373;BME280;46216;52.220;5.134;2023-08-31T10:46:49;101160.81;;;18.66;100.00
60373;BME280;46216;52.220;5.134;2023-08-31T10:49:20;101164.56;;;18.91;100.00
60373;BME280;46216;52.220;5.134;2023-08-31T10:51:48;101169.88;;;19.01;100.00
60373;BME280;46216;52.220;5.134;2023-08-31T10:54:24;101166.22;;;19.10;100.00
60373;BME280;46216;52.220;5.134;2023-08-31T10:59:51;101188.13;;;18.81;100.00
60373;BME280;46216;52.220;5.134;2023-08-31T11:02:37;101188.41;;;18.60;100.00
60373;BME280;46216;52.220;5.134;2023-08-31T11:07:35;101194.69;;;18.43;100.00
60373;BME280;46216;52.220;5.134;2023-08-31T11:10:17;101193.66;;;18.26;100.00
60373;BME280;46216;52.220;5.134;2023-08-31T11:12:45;101193.28;;;18.21;100.00
60373;BME280;46216;52.220;5.134;2023-08-31T11:15:12;101194.00;;;18.41;100.00
60373;BME280;46216;52.220;5.134;2023-08-31T11:17:40;101186.38;;;18.72;100.00
60373;BME280;46216;52.220;5.134;2023-08-31T11:20:06;101189.41;;;18.95;100.00
60373;BME280;46216;52.220;5.134;2023-08-31T11:22:31;101191.38;;;19.11;100.00
60373;BME280;46216;52.220;5.134;2023-08-31T11:24:58;101183.44;;;19.09;100.00
60373;BME280;46216;52.220;5.134;2023-08-31T11:27:25;101175.41;;;19.26;100.00
60373;BME280;46216;52.220;5.134;2023-08-31T11:29:50;101180.78;;;19.44;100.00
60373;BME280;46216;52.220;5.134;2023-08-31T11:32:15;101167.28;;;19.52;100.00
60373;BME280;46216;52.220;5.134;2023-08-31T11:34:41;101169.25;;;19.68;100.00
60373;BME280;46216;52.220;5.134;2023-08-31T11:37:08;101168.75;;;19.64;100.00
60373;BME280;46216;52.220;5.134;2023-08-31T11:39:34;101166.06;;;19.72;100.00
60373;BME280;46216;52.220;5.134;2023-08-31T11:41:59;101170.78;;;19.70;100.00
60373;BME280;46216;52.220;5.134;2023-08-31T11:44:25;101159.63;;;19.73;100.00
60373;BME280;46216;52.220;5.134;2023-08-31T11:46:51;101158.19;;;19.87;100.00
60373;BME280;46216;52.220;5.134;2023-08-31T11:49:18;101156.34;;;20.04;100.00
60373;BME280;46216;52.220;5.134;2023-08-31T11:51:44;101161.28;;;20.17;100.00
60373;BME280;46216;52.220;5.134;2023-08-31T11:54:10;101165.22;;;20.39;100.00
60373;BME280;46216;52.220;5.134;2023-08-31T11:56:42;101159.84;;;20.55;100.00
60373;BME280;46216;52.220;5.134;2023-08-31T11:59:12;101160.97;;;20.44;100.00
60373;BME280;46216;52.220;5.134;2023-08-31T12:01:42;101155.59;;;20.52;100.00
60373;BME280;46216;52.220;5.134;2023-08-31T12:04:15;101158.47;;;20.59;100.00
60373;BME280;46216;52.220;5.134;2023-08-31T12:06:41;101160.34;;;20.67;100.00
60373;BME280;46216;52.220;5.134;2023-08-31T12:09:10;101158.31;;;20.69;100.00
60373;BME280;46216;52.220;5.134;2023-08-31T12:11:35;101156.28;;;20.79;100.00
60373;BME280;46216;52.220;5.134;2023-08-31T12:14:02;101154.06;;;20.91;100.00
60373;BME280;46216;52.220;5.134;2023-08-31T12:16:35;101152.00;;;21.01;100.00
60373;BME280;46216;52.220;5.134;2023-08-31T12:19:04;101158.13;;;20.87;100.00
60373;BME280;46216;52.220;5.134;2023-08-31T12:21:31;101158.97;;;20.71;100.00
60373;BME280;46216;52.220;5.134;2023-08-31T12:23:58;101147.63;;;20.84;100.00
60373;BME280;46216;52.220;5.134;2023-08-31T12:26:24;101155.41;;;20.87;100.00
60373;BME280;46216;52.220;5.134;2023-08-31T12:28:49;101156.44;;;20.86;100.00
60373;BME280;46216;52.220;5.134;2023-08-31T12:31:15;101157.78;;;20.90;100.00
60373;BME280;46216;52.220;5.134;2023-08-31T12:33:40;101171.66;;;21.03;100.00
60373;BME280;46216;52.220;5.134;2023-08-31T12:36:05;101172.69;;;20.86;100.00
60373;BME280;46216;52.220;5.134;2023-08-31T12:38:31;101165.56;;;20.85;100.00
60373;BME280;46216;52.220;5.134;2023-08-31T12:40:56;101160.81;;;20.78;100.00
60373;BME280;46216;52.220;5.134;2023-08-31T12:43:22;101167.28;;;20.86;100.00
60373;BME280;46216;52.220;5.134;2023-08-31T12:45:47;101166.38;;;21.01;100.00
60373;BME280;46216;52.220;5.134;2023-08-31T12:48:13;101160.78;;;21.11;100.00
60373;BME280;46216;52.220;5.134;2023-08-31T12:50:39;101172.63;;;21.18;100.00
60373;BME280;46216;52.220;5.134;2023-08-31T12:53:04;101166.34;;;21.34;100.00
60373;BME280;46216;52.220;5.134;2023-08-31T12:55:30;101176.69;;;21.31;100.00